createdAt,value
2015-02-01T06:25:55.087Z,96409
2015-02-01T06:26:12.966Z,96398
2015-02-01T06:26:31.506Z,96406
2015-02-01T06:26:49.993Z,96398
2015-02-01T06:27:08.485Z,96392
2015-02-01T06:27:27.004Z,96401
2015-02-01T06:27:45.499Z,96401
2015-02-01T06:28:03.991Z,96415
2015-02-01T06:28:22.486Z,96404
2015-02-01T06:28:40.990Z,96395
2015-02-01T06:28:59.479Z,96406
2015-02-01T06:29:17.979Z,96404
2015-02-01T06:29:36.468Z,96398
2015-02-01T06:29:54.959Z,96395
2015-02-01T06:30:13.445Z,96395
2015-02-01T06:30:31.958Z,96395
2015-02-01T06:30:50.448Z,96398
2015-02-01T06:31:08.931Z,96406
2015-02-01T06:31:27.427Z,96403
2015-02-01T06:31:45.910Z,96409
2015-02-01T06:32:04.402Z,96398
2015-02-01T06:32:22.890Z,96404
2015-02-01T06:32:41.378Z,96398
2015-02-01T06:32:59.864Z,96406
2015-02-01T06:33:18.359Z,96406
2015-02-01T06:33:36.881Z,96395
2015-02-01T06:33:55.374Z,96403
2015-02-01T06:34:13.868Z,96392
2015-02-01T06:34:32.361Z,96400
2015-02-01T06:34:50.866Z,96395
2015-02-01T06:35:09.357Z,96400
2015-02-01T06:35:27.842Z,96400
2015-02-01T06:35:46.345Z,96400
2015-02-01T06:36:04.850Z,96400
2015-02-01T06:36:23.332Z,96403
2015-02-01T06:36:41.850Z,96397
2015-02-01T06:37:00.332Z,96397
2015-02-01T06:37:18.817Z,96400
2015-02-01T06:37:37.303Z,96406
2015-02-01T06:37:55.822Z,96408
2015-02-01T06:38:14.315Z,96403
2015-02-01T06:38:32.816Z,96414
2015-02-01T06:38:51.323Z,96406
2015-02-01T06:39:09.809Z,96403
2015-02-01T06:39:28.298Z,96403
2015-02-01T06:39:46.799Z,96403
2015-02-01T06:40:05.308Z,96403
2015-02-01T06:40:23.786Z,96403
2015-02-01T06:40:42.279Z,96414
2015-02-01T06:41:00.776Z,96417
2015-02-01T06:41:19.273Z,96405
2015-02-01T06:41:37.771Z,96425
2015-02-01T06:41:56.267Z,96408
2015-02-01T06:42:14.753Z,96400
2015-02-01T06:42:33.245Z,96408
2015-02-01T06:42:51.768Z,96405
2015-02-01T06:43:10.258Z,96411
2015-02-01T06:43:28.747Z,96419
2015-02-01T06:43:47.241Z,96414
2015-02-01T06:44:05.739Z,96411
2015-02-01T06:44:24.237Z,96411
2015-02-01T06:44:42.719Z,96413
2015-02-01T06:45:01.208Z,96402
2015-02-01T06:45:19.740Z,96408
2015-02-01T06:45:38.220Z,96413
2015-02-01T06:45:56.733Z,96416
2015-02-01T06:46:15.213Z,96419
2015-02-01T06:46:33.706Z,96410
2015-02-01T06:46:52.196Z,96416
2015-02-01T06:47:10.718Z,96413
2015-02-01T06:47:29.199Z,96419
2015-02-01T06:47:47.702Z,96410
2015-02-01T06:48:06.186Z,96419
2015-02-01T06:48:24.673Z,96413
2015-02-01T06:48:43.169Z,96416
2015-02-01T06:49:01.684Z,96419
2015-02-01T06:49:20.166Z,96416
2015-02-01T06:49:38.683Z,96413
2015-02-01T06:49:57.170Z,96413
2015-02-01T06:50:15.676Z,96413
2015-02-01T06:50:34.157Z,96413
2015-02-01T06:50:52.670Z,96413
2015-02-01T06:51:11.153Z,96413
2015-02-01T06:51:29.636Z,96419
2015-02-01T06:51:48.130Z,96413
2015-02-01T06:52:06.613Z,96419
2015-02-01T06:52:25.101Z,96424
2015-02-01T06:52:43.576Z,96416
2015-02-01T06:53:02.098Z,96422
2015-02-01T06:53:20.582Z,96422
2015-02-01T06:53:39.077Z,96427
2015-02-01T06:53:57.571Z,96424
2015-02-01T06:54:16.071Z,96430
2015-02-01T06:54:34.563Z,96430
2015-02-01T06:54:53.046Z,96427
2015-02-01T06:55:11.547Z,96424
2015-02-01T06:55:30.036Z,96424
2015-02-01T06:55:48.521Z,96433
2015-02-01T06:56:07.010Z,96427
2015-02-01T06:56:25.548Z,96424
2015-02-01T06:56:44.035Z,96419
2015-02-01T06:57:02.535Z,96430
2015-02-01T06:57:21.017Z,96427
2015-02-01T06:57:39.528Z,96427
2015-02-01T06:57:58.012Z,96430
2015-02-01T06:58:16.529Z,96424
2015-02-01T06:58:35.009Z,96424
2015-02-01T06:58:53.507Z,96430
2015-02-01T06:59:12.012Z,96436
2015-02-01T06:59:30.563Z,96430
2015-02-01T06:59:49.050Z,96430
2015-02-01T07:00:07.537Z,96438
2015-02-01T07:00:26.016Z,96438
2015-02-01T07:00:44.544Z,96438
2015-02-01T07:01:03.041Z,96438
2015-02-01T07:01:21.517Z,96441
2015-02-01T07:01:40.012Z,96438
2015-02-01T07:01:58.526Z,96444
2015-02-01T07:02:17.013Z,96435
2015-02-01T07:02:35.521Z,96430
2015-02-01T07:02:54.012Z,96435
2015-02-01T07:03:12.515Z,96446
2015-02-01T07:03:30.996Z,96441
2015-02-01T07:03:49.504Z,96438
2015-02-01T07:04:07.989Z,96436
2015-02-01T07:04:26.480Z,96444
2015-02-01T07:04:44.973Z,96435
2015-02-01T07:05:03.450Z,96438
2015-02-01T07:05:21.938Z,96441
2015-02-01T07:05:40.481Z,96441
2015-02-01T07:05:58.965Z,96446
2015-02-01T07:06:17.449Z,96441
2015-02-01T07:06:35.951Z,96438
2015-02-01T07:06:54.459Z,96447
2015-02-01T07:07:12.951Z,96441
2015-02-01T07:07:31.438Z,96438
2015-02-01T07:07:49.924Z,96447
2015-02-01T07:08:08.409Z,96441
2015-02-01T07:08:26.903Z,96447
2015-02-01T07:08:45.392Z,96447
2015-02-01T07:09:03.889Z,96449
2015-02-01T07:09:22.434Z,96447
2015-02-01T07:09:40.922Z,96441
2015-02-01T07:09:59.416Z,96447
2015-02-01T07:10:17.899Z,96449
2015-02-01T07:10:36.474Z,96438
2015-02-01T07:10:54.965Z,96449
2015-02-01T07:11:13.455Z,96452
2015-02-01T07:11:31.943Z,96455
2015-02-01T07:11:50.428Z,96449
2015-02-01T07:12:08.919Z,96447
2015-02-01T07:12:27.418Z,96452
2015-02-01T07:12:45.897Z,96452
2015-02-01T07:13:04.390Z,96452
2015-02-01T07:13:22.886Z,96449
2015-02-01T07:13:41.375Z,96447
2015-02-01T07:13:59.862Z,96452
2015-02-01T07:14:18.378Z,96449
2015-02-01T07:14:36.858Z,96449
2015-02-01T07:14:55.366Z,96444
2015-02-01T07:15:13.852Z,96449
2015-02-01T07:15:32.341Z,96452
2015-02-01T07:15:50.822Z,96455
2015-02-01T07:16:09.352Z,96449
2015-02-01T07:16:27.838Z,96452
2015-02-01T07:16:46.351Z,96446
2015-02-01T07:17:04.827Z,96458
2015-02-01T07:17:23.317Z,96460
2015-02-01T07:17:41.797Z,96463
2015-02-01T07:18:00.284Z,96455
2015-02-01T07:18:18.764Z,96444
2015-02-01T07:18:37.266Z,96455
2015-02-01T07:18:55.756Z,96463
2015-02-01T07:19:14.254Z,96457
2015-02-01T07:19:32.758Z,96460
2015-02-01T07:19:51.242Z,96460
2015-02-01T07:20:09.724Z,96449
2015-02-01T07:20:28.207Z,96457
2015-02-01T07:20:46.684Z,96463
2015-02-01T07:21:05.199Z,96466
2015-02-01T07:21:23.687Z,96452
2015-02-01T07:21:42.184Z,96466
2015-02-01T07:22:00.661Z,96455
2015-02-01T07:22:19.150Z,96449
2015-02-01T07:22:37.628Z,96455
2015-02-01T07:22:56.142Z,96455
2015-02-01T07:23:14.631Z,96460
2015-02-01T07:23:33.138Z,96466
2015-02-01T07:23:51.627Z,96461
2015-02-01T07:24:10.130Z,96460
2015-02-01T07:24:28.641Z,96461
2015-02-01T07:24:47.193Z,96460
2015-02-01T07:25:05.687Z,96472
2015-02-01T07:25:24.184Z,96466
2015-02-01T07:25:42.666Z,96458
2015-02-01T07:26:01.173Z,96463
2015-02-01T07:26:19.663Z,96469
2015-02-01T07:26:38.168Z,96466
2015-02-01T07:26:56.656Z,96480
2015-02-01T07:27:15.164Z,96472
2015-02-01T07:27:33.663Z,96480
2015-02-01T07:27:52.175Z,96474
2015-02-01T07:28:10.661Z,96463
2015-02-01T07:28:29.156Z,96477
2015-02-01T07:28:47.639Z,96469
2015-02-01T07:29:06.195Z,96469
2015-02-01T07:29:24.680Z,96463
2015-02-01T07:29:43.184Z,96480
2015-02-01T07:30:01.677Z,96474
2015-02-01T07:30:20.162Z,96472
2015-02-01T07:30:38.657Z,96485
2015-02-01T07:30:57.140Z,96487
2015-02-01T07:31:15.624Z,96474
2015-02-01T07:31:34.106Z,96463
2015-02-01T07:31:52.591Z,96472
2015-02-01T07:32:11.097Z,96485
2015-02-01T07:32:29.584Z,96468
2015-02-01T07:32:48.091Z,96471
2015-02-01T07:33:06.571Z,96477
2015-02-01T07:33:25.064Z,96480
2015-02-01T07:33:43.557Z,96472
2015-02-01T07:34:02.051Z,96480
2015-02-01T07:34:20.537Z,96466
2015-02-01T07:34:39.031Z,96477
2015-02-01T07:34:57.523Z,96471
2015-02-01T07:35:16.013Z,96471
2015-02-01T07:35:34.503Z,96471
2015-02-01T07:35:52.990Z,96468
2015-02-01T07:36:11.489Z,96471
2015-02-01T07:36:30.038Z,96477
2015-02-01T07:36:48.555Z,96474
2015-02-01T07:37:07.065Z,96480
2015-02-01T07:37:25.552Z,96485
2015-02-01T07:37:44.089Z,96472
2015-02-01T07:38:02.578Z,96477
2015-02-01T07:38:21.079Z,96480
2015-02-01T07:38:39.573Z,96477
2015-02-01T07:38:58.063Z,96480
2015-02-01T07:39:16.551Z,96480
2015-02-01T07:39:35.061Z,96477
2015-02-01T07:39:53.564Z,96480
2015-02-01T07:40:12.055Z,96488
2015-02-01T07:40:30.538Z,96477
2015-02-01T07:40:49.038Z,96469
2015-02-01T07:41:07.525Z,96480
2015-02-01T07:41:26.036Z,96480
2015-02-01T07:41:44.521Z,96480
2015-02-01T07:42:03.029Z,96485
2015-02-01T07:42:21.540Z,96490
2015-02-01T07:42:40.028Z,96493
2015-02-01T07:42:58.516Z,96488
2015-02-01T07:43:17.021Z,96475
2015-02-01T07:43:35.509Z,96485
2015-02-01T07:43:53.998Z,96475
2015-02-01T07:44:12.476Z,96485
2015-02-01T07:44:30.969Z,96488
2015-02-01T07:44:49.451Z,96485
2015-02-01T07:45:07.937Z,96488
2015-02-01T07:45:26.421Z,96485
2015-02-01T07:45:44.902Z,96485
2015-02-01T07:46:03.386Z,96485
2015-02-01T07:46:21.918Z,96485
2015-02-01T07:46:40.403Z,96493
2015-02-01T07:46:58.890Z,96488
2015-02-01T07:47:17.375Z,96505
2015-02-01T07:47:35.859Z,96485
2015-02-01T07:47:54.343Z,96488
2015-02-01T07:48:12.833Z,96493
2015-02-01T07:48:31.324Z,96485
2015-02-01T07:48:49.828Z,96485
2015-02-01T07:49:08.327Z,96490
2015-02-01T07:49:26.881Z,96496
2015-02-01T07:49:45.372Z,96499
2015-02-01T07:50:03.874Z,96499
2015-02-01T07:50:22.365Z,96485
2015-02-01T07:50:40.861Z,96493
2015-02-01T07:50:59.348Z,96499
2015-02-01T07:51:17.850Z,96493
2015-02-01T07:51:36.332Z,96493
2015-02-01T07:51:54.824Z,96493
2015-02-01T07:52:13.311Z,96499
2015-02-01T07:52:31.837Z,96499
2015-02-01T07:52:50.355Z,96496
2015-02-01T07:53:08.902Z,96504
2015-02-01T07:53:27.391Z,96499
2015-02-01T07:53:45.905Z,96501
2015-02-01T07:54:04.376Z,96496
2015-02-01T07:54:22.881Z,96499
2015-02-01T07:54:41.370Z,96499
2015-02-01T07:54:59.857Z,96493
2015-02-01T07:55:18.342Z,96501
2015-02-01T07:55:36.838Z,96504
2015-02-01T07:55:55.320Z,96501
2015-02-01T07:56:13.836Z,96499
2015-02-01T07:56:32.320Z,96501
2015-02-01T07:56:50.809Z,96496
2015-02-01T07:57:09.287Z,96501
2015-02-01T07:57:27.775Z,96496
2015-02-01T07:57:46.286Z,96499
2015-02-01T07:58:04.774Z,96504
2015-02-01T07:58:23.264Z,96504
2015-02-01T07:58:41.764Z,96499
2015-02-01T07:59:00.278Z,96504
2015-02-01T07:59:18.826Z,96501
2015-02-01T07:59:37.300Z,96507
2015-02-01T07:59:55.793Z,96499
2015-02-01T08:00:14.277Z,96504
2015-02-01T08:00:32.802Z,96499
2015-02-01T08:00:51.291Z,96501
2015-02-01T08:01:09.793Z,96496
2015-02-01T08:01:28.279Z,96499
2015-02-01T08:01:46.766Z,96501
2015-02-01T08:02:05.258Z,96501
2015-02-01T08:02:23.751Z,96499
2015-02-01T08:02:42.245Z,96496
2015-02-01T08:03:00.776Z,96496
2015-02-01T08:03:19.262Z,96496
2015-02-01T08:03:37.763Z,96513
2015-02-01T08:03:56.257Z,96505
2015-02-01T08:04:14.755Z,96494
2015-02-01T08:04:33.239Z,96488
2015-02-01T08:04:51.729Z,96502
2015-02-01T08:05:10.225Z,96491
2015-02-01T08:05:28.716Z,96488
2015-02-01T08:05:47.210Z,96493
2015-02-01T08:06:05.706Z,96496
2015-02-01T08:06:24.192Z,96499
2015-02-01T08:06:42.680Z,96496
2015-02-01T08:07:01.173Z,96502
2015-02-01T08:07:19.701Z,96507
2015-02-01T08:07:38.185Z,96499
2015-02-01T08:07:56.677Z,96496
2015-02-01T08:08:15.165Z,96496
2015-02-01T08:08:33.647Z,96499
2015-02-01T08:08:52.148Z,96499
2015-02-01T08:09:10.701Z,96493
2015-02-01T08:09:29.187Z,96499
2015-02-01T08:09:47.675Z,96493
2015-02-01T08:10:06.159Z,96501
2015-02-01T08:10:24.642Z,96499
2015-02-01T08:10:43.149Z,96504
2015-02-01T08:11:01.643Z,96499
2015-02-01T08:11:20.134Z,96510
2015-02-01T08:11:38.669Z,96493
2015-02-01T08:11:57.158Z,96496
2015-02-01T08:12:15.644Z,96496
2015-02-01T08:12:34.132Z,96499
2015-02-01T08:12:52.615Z,96510
2015-02-01T08:13:11.102Z,96493
2015-02-01T08:13:29.590Z,96490
2015-02-01T08:13:48.092Z,96501
2015-02-01T08:14:06.630Z,96507
2015-02-01T08:14:25.110Z,96504
2015-02-01T08:14:43.620Z,96510
2015-02-01T08:15:02.111Z,96504
2015-02-01T08:15:20.603Z,96504
2015-02-01T08:15:39.087Z,96504
2015-02-01T08:15:57.620Z,96510
2015-02-01T08:16:16.104Z,96502
2015-02-01T08:16:34.589Z,96507
2015-02-01T08:16:53.076Z,96507
2015-02-01T08:17:11.592Z,96507
2015-02-01T08:17:30.081Z,96505
2015-02-01T08:17:48.583Z,96504
2015-02-01T08:18:07.080Z,96502
2015-02-01T08:18:25.568Z,96504
2015-02-01T08:18:44.061Z,96504
2015-02-01T08:19:02.571Z,96513
2015-02-01T08:19:21.063Z,96507
2015-02-01T08:19:39.558Z,96513
2015-02-01T08:19:58.048Z,96499
2015-02-01T08:20:16.543Z,96505
2015-02-01T08:20:35.036Z,96494
2015-02-01T08:20:53.522Z,96499
2015-02-01T08:21:12.018Z,96510
2015-02-01T08:21:30.529Z,96510
2015-02-01T08:21:48.998Z,96513
2015-02-01T08:22:07.534Z,96504
2015-02-01T08:22:26.025Z,96507
2015-02-01T08:22:44.517Z,96499
2015-02-01T08:23:03.013Z,96504
2015-02-01T08:23:21.548Z,96507
2015-02-01T08:23:40.009Z,96516
2015-02-01T08:23:58.499Z,96510
2015-02-01T08:24:16.977Z,96513
2015-02-01T08:24:35.470Z,96521
2015-02-01T08:24:53.949Z,96502
2015-02-01T08:25:12.466Z,96516
2015-02-01T08:25:30.949Z,96510
2015-02-01T08:25:49.483Z,96516
2015-02-01T08:26:07.980Z,96516
2015-02-01T08:26:26.476Z,96510
2015-02-01T08:26:44.971Z,96507
2015-02-01T08:27:03.455Z,96519
2015-02-01T08:27:21.944Z,96516
2015-02-01T08:27:40.434Z,96510
2015-02-01T08:27:58.922Z,96513
2015-02-01T08:28:17.425Z,96516
2015-02-01T08:28:35.923Z,96513
2015-02-01T08:28:54.402Z,96516
2015-02-01T08:29:12.885Z,96522
2015-02-01T08:29:31.384Z,96524
2015-02-01T08:29:49.874Z,96519
2015-02-01T08:30:08.371Z,96516
2015-02-01T08:30:26.856Z,96519
2015-02-01T08:30:45.421Z,96516
2015-02-01T08:31:03.917Z,96519
2015-02-01T08:31:22.416Z,96530
2015-02-01T08:31:40.903Z,96524
2015-02-01T08:31:59.385Z,96516
2015-02-01T08:32:17.884Z,96519
2015-02-01T08:32:36.378Z,96516
2015-02-01T08:32:54.859Z,96516
2015-02-01T08:33:13.395Z,96513
2015-02-01T08:33:31.750Z,96516
2015-02-01T08:33:50.262Z,96519
2015-02-01T08:34:08.778Z,96516
2015-02-01T08:34:27.268Z,96533
2015-02-01T08:34:45.804Z,96514
2015-02-01T08:35:04.314Z,96525
2015-02-01T08:35:22.831Z,96522
2015-02-01T08:35:41.326Z,96511
2015-02-01T08:35:59.816Z,96525
2015-02-01T08:36:18.308Z,96516
2015-02-01T08:36:36.802Z,96513
2015-02-01T08:36:55.332Z,96516
2015-02-01T08:37:13.818Z,96508
2015-02-01T08:37:32.321Z,96511
2015-02-01T08:37:50.799Z,96519
2015-02-01T08:38:09.290Z,96516
2015-02-01T08:38:27.776Z,96513
2015-02-01T08:38:46.266Z,96516
2015-02-01T08:39:04.774Z,96519
2015-02-01T08:39:23.263Z,96522
2015-02-01T08:39:41.755Z,96516
2015-02-01T08:40:00.238Z,96519
2015-02-01T08:40:18.722Z,96519
2015-02-01T08:40:37.251Z,96525
2015-02-01T08:40:55.731Z,96522
2015-02-01T08:41:14.231Z,96522
2015-02-01T08:41:32.743Z,96514
2015-02-01T08:41:51.271Z,96522
2015-02-01T08:42:09.754Z,96522
2015-02-01T08:42:28.247Z,96525
2015-02-01T08:42:46.740Z,96522
2015-02-01T08:43:05.231Z,96525
2015-02-01T08:43:23.721Z,96520
2015-02-01T08:43:42.262Z,96522
2015-02-01T08:44:00.750Z,96520
2015-02-01T08:44:19.255Z,96522
2015-02-01T08:44:37.745Z,96514
2015-02-01T08:44:56.243Z,96514
2015-02-01T08:45:14.729Z,96522
2015-02-01T08:45:33.245Z,96528
2015-02-01T08:45:51.742Z,96517
2015-02-01T08:46:10.234Z,96519
2015-02-01T08:46:28.726Z,96517
2015-02-01T08:46:47.215Z,96520
2015-02-01T08:47:05.704Z,96514
2015-02-01T08:47:24.195Z,96506
2015-02-01T08:47:42.688Z,96520
2015-02-01T08:48:01.209Z,96511
2015-02-01T08:48:19.703Z,96514
2015-02-01T08:48:38.203Z,96505
2015-02-01T08:48:56.689Z,96514
2015-02-01T08:49:15.179Z,96517
2015-02-01T08:49:33.680Z,96511
2015-02-01T08:49:52.167Z,96508
2015-02-01T08:50:10.661Z,96508
2015-02-01T08:50:29.155Z,96508
2015-02-01T08:50:47.652Z,96503
2015-02-01T08:51:06.140Z,96497
2015-02-01T08:51:24.630Z,96511
2015-02-01T08:51:43.126Z,96511
2015-02-01T08:52:01.622Z,96505
2015-02-01T08:52:20.120Z,96511
2015-02-01T08:52:38.605Z,96522
2015-02-01T08:52:57.097Z,96514
2015-02-01T08:53:15.581Z,96516
2015-02-01T08:53:34.071Z,96508
2015-02-01T08:53:52.559Z,96511
2015-02-01T08:54:11.079Z,96517
2015-02-01T08:54:29.580Z,96522
2015-02-01T08:54:48.095Z,96514
2015-02-01T08:55:06.583Z,96517
2015-02-01T08:55:25.120Z,96508
2015-02-01T08:55:43.607Z,96525
2015-02-01T08:56:02.110Z,96514
2015-02-01T08:56:20.597Z,96525
2015-02-01T08:56:39.095Z,96514
2015-02-01T08:56:57.586Z,96517
2015-02-01T08:57:16.096Z,96514
2015-02-01T08:57:34.596Z,96522
2015-02-01T08:57:53.076Z,96519
2015-02-01T08:58:11.569Z,96519
2015-02-01T08:58:30.088Z,96531
2015-02-01T08:58:48.574Z,96520
2015-02-01T08:59:07.064Z,96520
2015-02-01T08:59:25.548Z,96525
2015-02-01T08:59:44.066Z,96522
2015-02-01T09:00:02.556Z,96520
2015-02-01T09:00:21.057Z,96508
2015-02-01T09:00:39.545Z,96525
2015-02-01T09:00:58.034Z,96520
2015-02-01T09:01:16.522Z,96522
2015-02-01T09:01:35.020Z,96523
2015-02-01T09:01:53.505Z,96517
2015-02-01T09:02:12.009Z,96525
2015-02-01T09:02:30.498Z,96539
2015-02-01T09:02:49.037Z,96520
2015-02-01T09:03:07.532Z,96517
2015-02-01T09:03:26.028Z,96520
2015-02-01T09:03:44.514Z,96525
2015-02-01T09:04:03.003Z,96520
2015-02-01T09:04:21.495Z,96520
2015-02-01T09:04:39.986Z,96523
2015-02-01T09:04:58.474Z,96528
2015-02-01T09:05:17.007Z,96517
2015-02-01T09:05:35.499Z,96528
2015-02-01T09:05:53.993Z,96531
2015-02-01T09:06:12.475Z,96528
2015-02-01T09:06:30.969Z,96517
2015-02-01T09:06:49.503Z,96526
2015-02-01T09:07:07.835Z,96531
2015-02-01T09:07:26.332Z,96531
2015-02-01T09:07:44.823Z,96523
2015-02-01T09:08:03.331Z,96523
2015-02-01T09:08:21.820Z,96515
2015-02-01T09:08:40.310Z,96529
2015-02-01T09:08:58.795Z,96529
2015-02-01T09:09:17.279Z,96520
2015-02-01T09:09:35.820Z,96529
2015-02-01T09:09:54.311Z,96529
2015-02-01T09:10:12.812Z,96523
2015-02-01T09:10:31.292Z,96523
2015-02-01T09:10:49.780Z,96529
2015-02-01T09:11:08.287Z,96520
2015-02-01T09:11:26.799Z,96532
2015-02-01T09:11:45.308Z,96523
2015-02-01T09:12:03.829Z,96529
2015-02-01T09:12:22.318Z,96523
2015-02-01T09:12:40.808Z,96523
2015-02-01T09:12:59.297Z,96523
2015-02-01T09:13:17.791Z,96528
2015-02-01T09:13:36.303Z,96528
2015-02-01T09:13:54.798Z,96523
2015-02-01T09:14:13.292Z,96520
2015-02-01T09:14:31.776Z,96523
2015-02-01T09:14:50.295Z,96531
2015-02-01T09:15:08.825Z,96528
2015-02-01T09:15:27.308Z,96526
2015-02-01T09:15:45.803Z,96520
2015-02-01T09:16:04.291Z,96525
2015-02-01T09:16:22.806Z,96534
2015-02-01T09:16:41.304Z,96528
2015-02-01T09:16:59.827Z,96523
2015-02-01T09:17:18.328Z,96531
2015-02-01T09:17:36.811Z,96528
2015-02-01T09:17:55.306Z,96537
2015-02-01T09:18:13.810Z,96531
2015-02-01T09:18:32.304Z,96531
2015-02-01T09:18:50.801Z,96537
2015-02-01T09:19:09.297Z,96540
2015-02-01T09:19:27.820Z,96534
2015-02-01T09:19:46.312Z,96534
2015-02-01T09:20:04.804Z,96529
2015-02-01T09:20:23.307Z,96537
2015-02-01T09:20:41.826Z,96534
2015-02-01T09:21:00.298Z,96526
2015-02-01T09:21:18.794Z,96537
2015-02-01T09:21:37.282Z,96537
2015-02-01T09:21:55.790Z,96528
2015-02-01T09:22:14.276Z,96540
2015-02-01T09:22:32.782Z,96540
2015-02-01T09:22:51.285Z,96542
2015-02-01T09:23:09.775Z,96534
2015-02-01T09:23:28.263Z,96537
2015-02-01T09:23:46.750Z,96542
2015-02-01T09:24:05.246Z,96542
2015-02-01T09:24:23.755Z,96537
2015-02-01T09:24:42.242Z,96528
2015-02-01T09:25:00.734Z,96537
2015-02-01T09:25:19.225Z,96542
2015-02-01T09:25:37.709Z,96542
2015-02-01T09:25:56.197Z,96534
2015-02-01T09:26:14.752Z,96540
2015-02-01T09:26:33.230Z,96540
2015-02-01T09:26:51.718Z,96528
2015-02-01T09:27:10.201Z,96531
2015-02-01T09:27:28.698Z,96539
2015-02-01T09:27:47.182Z,96531
2015-02-01T09:28:05.673Z,96542
2015-02-01T09:28:24.159Z,96528
2015-02-01T09:28:42.705Z,96531
2015-02-01T09:29:01.201Z,96537
2015-02-01T09:29:19.698Z,96537
2015-02-01T09:29:38.187Z,96531
2015-02-01T09:29:56.679Z,96526
2015-02-01T09:30:15.173Z,96537
2015-02-01T09:30:33.681Z,96531
2015-02-01T09:30:52.177Z,96534
2015-02-01T09:31:10.668Z,96531
2015-02-01T09:31:29.159Z,96520
2015-02-01T09:31:47.669Z,96537
2015-02-01T09:32:06.158Z,96525
2015-02-01T09:32:24.681Z,96542
2015-02-01T09:32:43.170Z,96540
2015-02-01T09:33:01.663Z,96534
2015-02-01T09:33:20.153Z,96540
2015-02-01T09:33:38.654Z,96537
2015-02-01T09:33:57.151Z,96548
2015-02-01T09:34:15.645Z,96542
2015-02-01T09:34:34.130Z,96542
2015-02-01T09:34:52.621Z,96545
2015-02-01T09:35:11.115Z,96537
2015-02-01T09:35:29.623Z,96542
2015-02-01T09:35:48.121Z,96537
2015-02-01T09:36:06.624Z,96553
2015-02-01T09:36:25.116Z,96542
2015-02-01T09:36:43.603Z,96551
2015-02-01T09:37:02.092Z,96545
2015-02-01T09:37:20.620Z,96545
2015-02-01T09:37:39.103Z,96556
2015-02-01T09:37:57.592Z,96551
2015-02-01T09:38:16.076Z,96551
2015-02-01T09:38:34.624Z,96551
2015-02-01T09:38:53.117Z,96551
2015-02-01T09:39:11.616Z,96546
2015-02-01T09:39:30.101Z,96546
2015-02-01T09:39:48.605Z,96548
2015-02-01T09:40:07.102Z,96559
2015-02-01T09:40:25.591Z,96548
2015-02-01T09:40:44.083Z,96559
2015-02-01T09:41:02.564Z,96559
2015-02-01T09:41:21.060Z,96543
2015-02-01T09:41:39.544Z,96551
2015-02-01T09:41:58.030Z,96557
2015-02-01T09:42:16.538Z,96549
2015-02-01T09:42:35.027Z,96546
2015-02-01T09:42:53.528Z,96551
2015-02-01T09:43:12.018Z,96557
2015-02-01T09:43:30.527Z,96562
2015-02-01T09:43:49.020Z,96557
2015-02-01T09:44:07.513Z,96557
2015-02-01T09:44:25.998Z,96557
2015-02-01T09:44:44.513Z,96552
2015-02-01T09:45:02.999Z,96560
2015-02-01T09:45:21.497Z,96557
2015-02-01T09:45:40.007Z,96554
2015-02-01T09:45:58.528Z,96570
2015-02-01T09:46:17.015Z,96557
2015-02-01T09:46:35.525Z,96562
2015-02-01T09:46:54.011Z,96562
2015-02-01T09:47:12.500Z,96565
2015-02-01T09:47:30.989Z,96565
2015-02-01T09:47:49.490Z,96560
2015-02-01T09:48:07.979Z,96567
2015-02-01T09:48:26.469Z,96567
2015-02-01T09:48:44.964Z,96570
2015-02-01T09:49:03.460Z,96565
2015-02-01T09:49:21.952Z,96557
2015-02-01T09:49:40.437Z,96573
2015-02-01T09:49:58.925Z,96567
2015-02-01T09:50:17.414Z,96557
2015-02-01T09:50:35.900Z,96565
2015-02-01T09:50:54.434Z,96570
2015-02-01T09:51:12.924Z,96573
2015-02-01T09:51:31.438Z,96565
2015-02-01T09:51:49.921Z,96562
2015-02-01T09:52:08.431Z,96565
2015-02-01T09:52:26.940Z,96573
2015-02-01T09:52:45.449Z,96562
2015-02-01T09:53:03.936Z,96562
2015-02-01T09:53:22.421Z,96567
2015-02-01T09:53:40.913Z,96573
2015-02-01T09:54:48.088Z,96565
2015-02-01T09:55:06.614Z,96573
2015-02-01T09:55:25.108Z,96573
2015-02-01T09:55:43.612Z,96573
2015-02-01T09:56:02.166Z,96568
2015-02-01T09:56:20.673Z,96576
2015-02-01T09:56:39.171Z,96567
2015-02-01T09:56:57.659Z,96573
2015-02-01T09:57:16.147Z,96573
2015-02-01T09:57:34.642Z,96565
2015-02-01T09:57:53.130Z,96571
2015-02-01T09:58:11.647Z,96571
2015-02-01T09:58:30.130Z,96585
2015-02-01T09:58:48.686Z,96587
2015-02-01T09:59:07.209Z,96576
2015-02-01T09:59:25.726Z,96576
2015-02-01T09:59:44.273Z,96571
2015-02-01T10:00:02.780Z,96568
2015-02-01T10:00:21.270Z,96571
2015-02-01T10:00:39.769Z,96568
2015-02-01T10:00:58.264Z,96573
2015-02-01T10:01:16.758Z,96570
2015-02-01T10:01:35.248Z,96570
2015-02-01T10:01:53.751Z,96568
2015-02-01T10:02:12.246Z,96582
2015-02-01T10:02:30.765Z,96573
2015-02-01T10:02:49.242Z,96576
2015-02-01T10:03:07.731Z,96576
2015-02-01T10:03:26.224Z,96576
2015-02-01T10:03:44.710Z,96581
2015-02-01T10:04:03.206Z,96568
2015-02-01T10:04:21.718Z,96573
2015-02-01T10:04:40.267Z,96568
2015-02-01T10:04:58.729Z,96576
2015-02-01T10:05:17.228Z,96573
2015-02-01T10:05:35.719Z,96573
2015-02-01T10:05:54.216Z,96567
2015-02-01T10:06:12.744Z,96584
2015-02-01T10:06:31.244Z,96576
2015-02-01T10:06:49.728Z,96576
2015-02-01T10:07:08.226Z,96573
2015-02-01T10:07:26.729Z,96573
2015-02-01T10:07:45.229Z,96579
2015-02-01T10:08:03.711Z,96576
2015-02-01T10:08:22.218Z,96573
2015-02-01T10:08:40.718Z,96576
2015-02-01T10:08:59.211Z,96576
2015-02-01T10:09:17.698Z,96579
2015-02-01T10:09:36.205Z,96579
2015-02-01T10:09:54.713Z,96581
2015-02-01T10:10:13.203Z,96573
2015-02-01T10:10:31.712Z,96576
2015-02-01T10:10:50.195Z,96576
2015-02-01T10:11:08.681Z,96576
2015-02-01T10:11:27.178Z,96579
2015-02-01T10:11:45.665Z,96573
2015-02-01T10:12:04.176Z,96579
2015-02-01T10:12:22.677Z,96581
2015-02-01T10:12:41.165Z,96584
2015-02-01T10:12:59.671Z,96576
2015-02-01T10:13:18.165Z,96576
2015-02-01T10:13:36.664Z,96587
2015-02-01T10:13:55.160Z,96587
2015-02-01T10:14:13.680Z,96581
2015-02-01T10:14:32.176Z,96582
2015-02-01T10:14:50.698Z,96593
2015-02-01T10:15:09.208Z,96584
2015-02-01T10:15:27.720Z,96590
2015-02-01T10:15:46.204Z,96587
2015-02-01T10:16:04.722Z,96582
2015-02-01T10:16:23.224Z,96596
2015-02-01T10:16:41.722Z,96596
2015-02-01T10:17:00.224Z,96585
2015-02-01T10:17:18.721Z,96590
2015-02-01T10:17:37.210Z,96599
2015-02-01T10:17:55.704Z,96601
2015-02-01T10:18:14.197Z,96593
2015-02-01T10:18:32.682Z,96593
2015-02-01T10:18:51.199Z,96596
2015-02-01T10:19:09.711Z,96602
2015-02-01T10:19:28.229Z,96596
2015-02-01T10:19:46.719Z,96588
2015-02-01T10:20:05.220Z,96593
2015-02-01T10:20:23.716Z,96591
2015-02-01T10:20:42.205Z,96582
2015-02-01T10:21:00.705Z,96602
2015-02-01T10:21:19.196Z,96602
2015-02-01T10:21:37.726Z,96605
2015-02-01T10:21:56.213Z,96602
2015-02-01T10:22:14.726Z,96594
2015-02-01T10:22:33.224Z,96602
2015-02-01T10:22:51.721Z,96594
2015-02-01T10:23:10.230Z,96599
2015-02-01T10:23:28.717Z,96594
2015-02-01T10:23:47.254Z,96591
2015-02-01T10:24:05.751Z,96599
2015-02-01T10:24:24.330Z,96594
2015-02-01T10:24:42.825Z,96605